Terminal Aerodrome Forecast
Issued by NWS Grand Forks, ND

Home | Current Version | Previous Version | Text Only | Print | Product List | Glossary On
Versions: 1 2 3 4 5 6 7 8 9 10 11 12 13 14 15 16 17 18 19 20 21
478
FTUS43 KFGF 211307 AAA
TAFGFK
TAF AMD
KGFK 211307Z 2113/2212 VRB06KT P6SM SCT100
      TEMPO 2113/2114 5SM BR
     FM220200 VRB04KT P6SM -RASN BKN040
     FM220500 VRB04KT P6SM BKN015=

USA.gov is the U.S. government's official web portal to all federal, state and local government web resources and services.